EKRK/RKE METAR and TAF weather

Enter ICAO airport designator
Station Type Date Time Source
EKRK METAR 2018/10/21 03:50 UTC NOAA

EKRK 210350Z AUTO 22002KT 9999NDV BKN065/// 07/06 Q1026


Station Type Date Time Source
EKRK Decoded METAR 2018/10/21 03:50 UTC NOAA

Koebenhavn / Roskilde, Denmark (EKRK) 55-35N 012-08E 44M
Oct 20, 2018 - 11:50 PM EDT / 2018.10.21 0350 UTC
Wind: from the SW (220 degrees) at 2 MPH (2 KT):0
Sky conditions: mostly cloudy
Temperature: 44 F (7 C)
Dew Point: 42 F (6 C)
Relative Humidity: 93%
Pressure (altimeter): 30.30 in. Hg (1026 hPa)
ob: EKRK 210350Z AUTO 22002KT 9999NDV BKN065/// 07/06 Q1026
cycle: 4

Station Type Date Time Source
EKRK TAF UTC NOAA

Error!


Example: see airport list